Time,TemperatureF,DewpointF,PressureIn,WindDirection,WindDirectionDegrees,WindSpeedMPH,WindSpeedGustMPH,Humidity,HourlyPrecipIn,Conditions,Clouds,dailyrainin,SoftwareType,DateUTC
2013-07-26 00:02:00,64.4,58.5,30.32,North,0,0.0,0.0,81,0.00,,,0.00,WUHU216HW,2013-07-26 07:02:00,
2013-07-26 00:07:00,64.4,58.5,30.32,North,0,0.0,0.0,81,0.00,,,0.00,WUHU216HW,2013-07-26 07:07:00,
2013-07-26 00:12:00,64.4,58.5,30.32,North,0,0.0,0.0,81,0.00,,,0.00,WUHU216HW,2013-07-26 07:12:00,
2013-07-26 00:17:00,64.4,58.5,30.32,North,0,0.0,0.0,81,0.00,,,0.00,WUHU216HW,2013-07-26 07:17:00,
2013-07-26 00:22:00,64.3,58.3,30.32,North,0,0.0,0.0,81,0.00,,,0.00,WUHU216HW,2013-07-26 07:22:00,
2013-07-26 00:27:00,64.1,58.2,30.32,North,0,0.0,0.0,81,0.00,,,0.00,WUHU216HW,2013-07-26 07:27:00,
2013-07-26 00:32:00,63.9,58.0,30.32,North,0,0.0,0.0,81,0.00,,,0.00,WUHU216HW,2013-07-26 07:32:00,
2013-07-26 00:37:00,63.7,57.8,30.32,North,0,0.0,0.0,81,0.00,,,0.00,WUHU216HW,2013-07-26 07:37:00,
2013-07-26 00:42:00,63.7,57.8,30.32,North,0,0.0,0.0,81,0.00,,,0.00,WUHU216HW,2013-07-26 07:42:00,
2013-07-26 00:47:00,63.7,58.2,30.32,North,0,0.0,0.0,82,0.00,,,0.00,WUHU216HW,2013-07-26 07:47:00,
2013-07-26 00:52:00,63.5,57.6,30.32,North,0,0.0,0.0,81,0.00,,,0.00,WUHU216HW,2013-07-26 07:52:00,
2013-07-26 00:57:00,63.5,57.6,30.32,North,0,0.0,0.0,81,0.00,,,0.00,WUHU216HW,2013-07-26 07:57:00,
2013-07-26 01:02:00,63.5,58.0,30.32,North,0,0.0,0.0,82,0.00,,,0.00,WUHU216HW,2013-07-26 08:02:00,
2013-07-26 01:07:00,63.4,57.8,30.32,North,0,0.0,0.0,82,0.00,,,0.00,WUHU216HW,2013-07-26 08:07:00,
2013-07-26 01:12:00,63.4,57.8,30.31,North,0,0.0,0.0,82,0.00,,,0.00,WUHU216HW,2013-07-26 08:12:00,
2013-07-26 01:17:00,63.5,58.0,30.31,North,0,0.0,0.0,82,0.00,,,0.00,WUHU216HW,2013-07-26 08:17:00,
2013-07-26 01:22:00,63.5,58.0,30.31,North,0,0.0,0.0,82,0.00,,,0.00,WUHU216HW,2013-07-26 08:22:00,
2013-07-26 01:27:00,63.5,57.6,30.31,North,0,0.0,0.0,81,0.00,,,0.00,WUHU216HW,2013-07-26 08:27:00,
2013-07-26 01:32:00,63.4,57.8,30.31,North,0,0.0,0.0,82,0.00,,,0.00,WUHU216HW,2013-07-26 08:32:00,
2013-07-26 01:37:00,63.0,57.4,30.31,North,0,0.0,0.0,82,0.00,,,0.00,WUHU216HW,2013-07-26 08:37:00,
2013-07-26 01:42:00,63.0,57.4,30.31,North,0,0.0,0.0,82,0.00,,,0.00,WUHU216HW,2013-07-26 08:42:00,
2013-07-26 01:47:00,62.8,57.5,30.31,North,0,0.0,0.0,83,0.00,,,0.00,WUHU216HW,2013-07-26 08:47:00,
2013-07-26 01:52:00,62.6,57.3,30.31,North,0,0.0,0.0,83,0.00,,,0.00,WUHU216HW,2013-07-26 08:52:00,
2013-07-26 01:57:00,62.5,57.3,30.31,North,0,0.0,0.0,83,0.00,,,0.00,WUHU216HW,2013-07-26 08:57:00,
2013-07-26 02:02:00,62.3,57.1,30.31,North,0,0.0,0.0,83,0.00,,,0.00,WUHU216HW,2013-07-26 09:02:00,
2013-07-26 02:07:00,62.3,57.1,30.31,North,0,0.0,0.0,83,0.00,,,0.00,WUHU216HW,2013-07-26 09:07:00,
2013-07-26 02:13:00,62.3,57.1,30.31,North,0,0.0,0.0,83,0.00,,,0.00,WUHU216HW,2013-07-26 09:13:00,
2013-07-26 02:18:00,62.1,57.3,30.31,North,0,0.0,0.0,84,0.00,,,0.00,WUHU216HW,2013-07-26 09:18:00,
2013-07-26 02:23:00,62.1,57.3,30.31,North,0,0.0,0.0,84,0.00,,,0.00,WUHU216HW,2013-07-26 09:23:00,
2013-07-26 02:28:00,62.3,57.3,30.31,North,0,0.0,0.0,84,0.00,,,0.00,WUHU216HW,2013-07-26 09:28:00,
2013-07-26 02:33:00,62.3,57.3,30.31,North,0,0.0,0.0,84,0.00,,,0.00,WUHU216HW,2013-07-26 09:33:00,
2013-07-26 02:38:00,62.3,57.3,30.31,North,0,0.0,0.0,84,0.00,,,0.00,WUHU216HW,2013-07-26 09:38:00,
2013-07-26 02:43:00,62.1,57.3,30.31,North,0,0.0,0.0,84,0.00,,,0.00,WUHU216HW,2013-07-26 09:43:00,
2013-07-26 02:48:00,62.1,56.9,30.31,North,0,0.0,0.0,83,0.00,,,0.00,WUHU216HW,2013-07-26 09:48:00,
2013-07-26 02:53:00,62.1,57.3,30.31,North,0,0.0,0.0,84,0.00,,,0.00,WUHU216HW,2013-07-26 09:53:00,
2013-07-26 02:58:00,61.9,57.1,30.31,North,0,0.0,0.0,84,0.00,,,0.00,WUHU216HW,2013-07-26 09:58:00,
2013-07-26 03:03:00,61.6,56.7,30.31,North,0,0.0,0.0,84,0.00,,,0.00,WUHU216HW,2013-07-26 10:03:00,
2013-07-26 03:08:00,61.6,57.1,30.31,North,0,0.0,0.0,85,0.00,,,0.00,WUHU216HW,2013-07-26 10:08:00,
2013-07-26 03:13:00,61.6,57.1,30.31,North,0,0.0,0.0,85,0.00,,,0.00,WUHU216HW,2013-07-26 10:13:00,
2013-07-26 03:18:00,61.6,57.1,30.31,North,0,0.0,0.0,85,0.00,,,0.00,WUHU216HW,2013-07-26 10:18:00,
2013-07-26 03:23:00,61.6,57.1,30.31,North,0,0.0,0.0,85,0.00,,,0.00,WUHU216HW,2013-07-26 10:23:00,
2013-07-26 03:28:00,61.6,57.1,30.32,North,0,0.0,0.0,85,0.00,,,0.00,WUHU216HW,2013-07-26 10:28:00,
2013-07-26 03:33:00,61.4,56.9,30.32,North,0,0.0,0.0,85,0.00,,,0.00,WUHU216HW,2013-07-26 10:33:00,
2013-07-26 03:38:00,61.4,56.9,30.32,North,0,0.0,0.0,85,0.00,,,0.00,WUHU216HW,2013-07-26 10:38:00,
2013-07-26 03:43:00,61.4,56.9,30.31,North,0,0.0,0.0,85,0.00,,,0.00,WUHU216HW,2013-07-26 10:43:00,
2013-07-26 03:48:00,61.4,56.9,30.32,North,0,0.0,0.0,85,0.00,,,0.00,WUHU216HW,2013-07-26 10:48:00,
2013-07-26 03:53:00,61.4,56.9,30.31,North,0,0.0,0.0,85,0.00,,,0.00,WUHU216HW,2013-07-26 10:53:00,
2013-07-26 03:58:00,61.2,56.7,30.32,North,0,0.0,0.0,85,0.00,,,0.00,WUHU216HW,2013-07-26 10:58:00,
2013-07-26 04:03:00,61.2,56.7,30.32,North,0,0.0,0.0,85,0.00,,,0.00,WUHU216HW,2013-07-26 11:03:00,
2013-07-26 04:08:00,61.0,56.5,30.32,North,0,0.0,0.0,85,0.00,,,0.00,WUHU216HW,2013-07-26 11:08:00,
2013-07-26 04:13:00,61.0,56.5,30.32,North,0,0.0,0.0,85,0.00,,,0.00,WUHU216HW,2013-07-26 11:13:00,
2013-07-26 04:18:00,61.2,56.7,30.32,North,0,0.0,0.0,85,0.00,,,0.00,WUHU216HW,2013-07-26 11:18:00,
2013-07-26 04:23:00,61.4,56.9,30.32,North,0,0.0,0.0,85,0.00,,,0.00,WUHU216HW,2013-07-26 11:23:00,
2013-07-26 04:28:00,61.6,57.1,30.32,North,0,0.0,0.0,85,0.00,,,0.00,WUHU216HW,2013-07-26 11:28:00,
2013-07-26 04:33:00,61.6,57.1,30.32,North,0,0.0,0.0,85,0.00,,,0.00,WUHU216HW,2013-07-26 11:33:00,
2013-07-26 04:38:00,61.6,57.1,30.32,North,0,0.0,0.0,85,0.00,,,0.00,WUHU216HW,2013-07-26 11:38:00,
2013-07-26 04:43:00,61.6,56.7,30.32,North,0,0.0,0.0,84,0.00,,,0.00,WUHU216HW,2013-07-26 11:43:00,
2013-07-26 04:48:00,61.6,56.7,30.32,North,0,0.0,0.0,84,0.00,,,0.00,WUHU216HW,2013-07-26 11:48:00,
2013-07-26 04:53:00,61.6,56.7,30.32,North,0,0.0,0.0,84,0.00,,,0.00,WUHU216HW,2013-07-26 11:53:00,
2013-07-26 04:58:00,61.6,57.1,30.32,North,0,0.0,0.0,85,0.00,,,0.00,WUHU216HW,2013-07-26 11:58:00,
2013-07-26 05:03:00,61.6,57.1,30.32,North,0,0.0,0.0,85,0.00,,,0.00,WUHU216HW,2013-07-26 12:03:00,
2013-07-26 05:08:00,61.7,56.9,30.32,North,0,0.0,0.0,84,0.00,,,0.00,WUHU216HW,2013-07-26 12:08:00,
2013-07-26 05:13:00,61.7,56.9,30.32,North,0,0.0,0.0,84,0.00,,,0.00,WUHU216HW,2013-07-26 12:13:00,
2013-07-26 05:18:00,61.7,56.9,30.32,North,0,0.0,0.0,84,0.01,,,0.01,WUHU216HW,2013-07-26 12:18:00,
2013-07-26 05:23:00,61.6,57.1,30.32,North,0,0.0,0.0,85,0.01,,,0.01,WUHU216HW,2013-07-26 12:23:00,
2013-07-26 05:28:00,61.2,56.7,30.32,North,0,0.0,0.0,85,0.01,,,0.01,WUHU216HW,2013-07-26 12:28:00,
2013-07-26 05:33:00,61.0,56.9,30.32,North,0,0.0,0.0,86,0.01,,,0.01,WUHU216HW,2013-07-26 12:33:00,
2013-07-26 05:38:00,60.8,57.0,30.32,North,0,0.0,0.0,87,0.01,,,0.01,WUHU216HW,2013-07-26 12:38:00,
2013-07-26 05:43:00,60.8,57.0,30.32,North,0,0.0,0.0,87,0.01,,,0.01,WUHU216HW,2013-07-26 12:43:00,
2013-07-26 05:48:00,60.7,56.8,30.32,North,0,0.0,0.0,87,0.01,,,0.01,WUHU216HW,2013-07-26 12:48:00,
2013-07-26 05:53:00,60.5,57.0,30.33,North,0,0.0,0.0,88,0.01,,,0.01,WUHU216HW,2013-07-26 12:53:00,
2013-07-26 05:58:00,60.5,57.0,30.33,North,0,0.0,0.0,88,0.01,,,0.01,WUHU216HW,2013-07-26 12:58:00,
2013-07-26 06:03:00,60.7,57.2,30.33,North,0,0.0,0.0,88,0.01,,,0.01,WUHU216HW,2013-07-26 13:03:00,
2013-07-26 06:08:00,60.8,57.3,30.33,North,0,0.0,0.0,88,0.01,,,0.01,WUHU216HW,2013-07-26 13:08:00,
2013-07-26 06:13:00,61.2,57.7,30.33,North,0,0.0,0.0,88,0.01,,,0.01,WUHU216HW,2013-07-26 13:13:00,
2013-07-26 06:18:00,61.7,57.9,30.34,North,0,0.0,0.0,87,0.00,,,0.01,WUHU216HW,2013-07-26 13:18:00,
2013-07-26 06:23:00,62.1,58.2,30.33,North,0,0.0,0.0,87,0.00,,,0.01,WUHU216HW,2013-07-26 13:23:00,
2013-07-26 06:28:00,62.5,58.6,30.34,North,0,0.0,0.0,87,0.00,,,0.01,WUHU216HW,2013-07-26 13:28:00,
2013-07-26 06:33:00,62.6,58.4,30.33,North,0,0.0,0.0,86,0.00,,,0.01,WUHU216HW,2013-07-26 13:33:00,
2013-07-26 06:38:00,62.8,58.6,30.34,North,0,0.0,0.0,86,0.00,,,0.01,WUHU216HW,2013-07-26 13:38:00,
2013-07-26 06:43:00,62.8,58.6,30.34,North,0,0.0,0.0,86,0.00,,,0.01,WUHU216HW,2013-07-26 13:43:00,
2013-07-26 06:48:00,62.8,58.2,30.35,North,0,0.0,0.0,85,0.00,,,0.01,WUHU216HW,2013-07-26 13:48:00,
2013-07-26 06:53:00,62.8,58.2,30.35,North,0,0.0,0.0,85,0.00,,,0.01,WUHU216HW,2013-07-26 13:53:00,
2013-07-26 06:58:00,63.0,58.4,30.36,North,0,0.0,0.0,85,0.00,,,0.01,WUHU216HW,2013-07-26 13:58:00,
2013-07-26 07:03:00,63.0,58.4,30.36,North,0,0.0,0.0,85,0.00,,,0.01,WUHU216HW,2013-07-26 14:03:00,
2013-07-26 07:08:00,63.2,59.0,30.36,North,0,0.0,0.0,86,0.00,,,0.01,WUHU216HW,2013-07-26 14:08:00,
2013-07-26 07:13:00,63.4,59.1,30.37,North,0,0.0,0.0,86,0.00,,,0.01,WUHU216HW,2013-07-26 14:13:00,
2013-07-26 07:18:00,63.5,59.3,30.37,North,0,0.0,0.0,86,0.00,,,0.01,WUHU216HW,2013-07-26 14:18:00,
2013-07-26 07:23:00,63.7,59.1,30.37,North,0,0.0,0.0,85,0.00,,,0.01,WUHU216HW,2013-07-26 14:23:00,
2013-07-26 07:28:00,63.9,59.3,30.37,North,0,0.0,0.0,85,0.00,,,0.01,WUHU216HW,2013-07-26 14:28:00,
2013-07-26 07:33:00,64.4,59.9,30.38,North,0,0.0,0.0,85,0.00,,,0.01,WUHU216HW,2013-07-26 14:33:00,
2013-07-26 07:38:00,65.0,60.4,30.38,North,0,0.0,0.0,85,0.00,,,0.01,WUHU216HW,2013-07-26 14:38:00,
2013-07-26 07:43:00,65.9,60.6,30.38,North,0,0.0,0.0,83,0.00,,,0.01,WUHU216HW,2013-07-26 14:43:00,
2013-07-26 07:48:00,66.6,60.7,30.38,North,0,0.0,0.0,81,0.00,,,0.01,WUHU216HW,2013-07-26 14:48:00,
2013-07-26 07:53:00,66.6,60.3,30.38,North,0,0.0,0.0,80,0.00,,,0.01,WUHU216HW,2013-07-26 14:53:00,
2013-07-26 07:58:00,66.6,60.3,30.38,North,0,0.0,0.0,80,0.00,,,0.01,WUHU216HW,2013-07-26 14:58:00,
2013-07-26 08:03:00,66.6,60.3,30.38,North,0,0.0,0.0,80,0.00,,,0.01,WUHU216HW,2013-07-26 15:03:00,
2013-07-26 08:08:00,66.2,60.3,30.38,North,0,0.0,0.0,81,0.00,,,0.01,WUHU216HW,2013-07-26 15:08:00,
2013-07-26 08:13:00,66.2,60.3,30.38,North,0,0.0,0.0,81,0.00,,,0.01,WUHU216HW,2013-07-26 15:13:00,
2013-07-26 08:18:00,66.2,60.3,30.38,North,0,0.0,0.0,81,0.00,,,0.01,WUHU216HW,2013-07-26 15:18:00,
2013-07-26 08:23:00,66.1,60.1,30.38,North,0,0.0,0.0,81,0.00,,,0.01,WUHU216HW,2013-07-26 15:23:00,
2013-07-26 08:28:00,66.2,60.3,30.38,North,0,0.0,0.0,81,0.00,,,0.01,WUHU216HW,2013-07-26 15:28:00,
2013-07-26 08:33:00,66.2,59.9,30.38,North,0,0.0,0.0,80,0.00,,,0.01,WUHU216HW,2013-07-26 15:33:00,
2013-07-26 08:38:00,66.4,60.1,30.38,North,0,0.0,0.0,80,0.00,,,0.01,WUHU216HW,2013-07-26 15:38:00,
2013-07-26 08:43:00,66.6,60.3,30.38,North,0,0.0,0.0,80,0.00,,,0.01,WUHU216HW,2013-07-26 15:43:00,
2013-07-26 08:48:00,67.0,60.7,30.38,North,0,0.0,0.0,80,0.00,,,0.01,WUHU216HW,2013-07-26 15:48:00,
2013-07-26 08:53:00,67.3,60.7,30.38,North,0,0.0,0.0,79,0.00,,,0.01,WUHU216HW,2013-07-26 15:53:00,
2013-07-26 08:58:00,67.7,60.2,30.38,North,0,0.0,0.0,77,0.00,,,0.01,WUHU216HW,2013-07-26 15:58:00,
2013-07-26 09:03:00,67.9,60.4,30.38,North,0,0.0,0.0,77,0.00,,,0.01,WUHU216HW,2013-07-26 16:03:00,
2013-07-26 09:08:00,68.0,59.9,30.37,North,0,0.0,0.0,75,0.00,,,0.01,WUHU216HW,2013-07-26 16:08:00,
2013-07-26 09:13:00,68.0,59.9,30.37,North,0,0.0,0.0,75,0.00,,,0.01,WUHU216HW,2013-07-26 16:13:00,
2013-07-26 09:18:00,68.2,58.9,30.37,North,0,0.0,0.0,72,0.00,,,0.01,WUHU216HW,2013-07-26 16:18:00,
2013-07-26 09:23:00,68.6,59.6,30.37,North,0,0.0,0.0,73,0.00,,,0.01,WUHU216HW,2013-07-26 16:23:00,
2013-07-26 09:28:00,68.8,59.4,30.37,North,0,0.0,0.0,72,0.00,,,0.01,WUHU216HW,2013-07-26 16:28:00,
2013-07-26 09:33:00,69.1,59.3,30.37,North,0,0.0,0.0,71,0.00,,,0.01,WUHU216HW,2013-07-26 16:33:00,
2013-07-26 09:38:00,69.5,59.7,30.37,North,0,0.0,0.0,71,0.00,,,0.01,WUHU216HW,2013-07-26 16:38:00,
2013-07-26 09:43:00,70.4,58.9,30.37,North,0,0.0,0.0,67,0.00,,,0.01,WUHU216HW,2013-07-26 16:43:00,
2013-07-26 09:48:00,71.1,59.6,30.37,North,0,0.0,0.0,67,0.00,,,0.01,WUHU216HW,2013-07-26 16:48:00,
2013-07-26 09:53:00,71.6,60.5,30.37,North,0,0.0,0.0,68,0.00,,,0.01,WUHU216HW,2013-07-26 16:53:00,
2013-07-26 09:58:00,72.4,60.0,30.37,North,0,0.0,0.0,65,0.00,,,0.01,WUHU216HW,2013-07-26 16:58:00,
2013-07-26 10:03:00,73.3,60.3,30.37,North,0,0.0,0.0,64,0.00,,,0.01,WUHU216HW,2013-07-26 17:03:00,
2013-07-26 10:08:00,73.4,58.7,30.37,North,0,0.0,0.0,60,0.00,,,0.01,WUHU216HW,2013-07-26 17:08:00,
2013-07-26 10:13:00,73.8,59.0,30.37,North,0,0.0,0.0,60,0.00,,,0.01,WUHU216HW,2013-07-26 17:13:00,
2013-07-26 10:18:00,74.0,59.7,30.37,North,0,0.0,0.0,61,0.00,,,0.01,WUHU216HW,2013-07-26 17:18:00,
2013-07-26 10:23:00,74.0,58.7,30.37,North,0,0.0,0.0,59,0.00,,,0.01,WUHU216HW,2013-07-26 17:23:00,
2013-07-26 10:28:00,74.2,58.4,30.37,North,0,0.0,0.0,58,0.00,,,0.01,WUHU216HW,2013-07-26 17:28:00,
2013-07-26 10:33:00,74.2,59.4,30.37,North,0,0.0,0.0,60,0.00,,,0.01,WUHU216HW,2013-07-26 17:33:00,
2013-07-26 10:38:00,74.3,59.6,30.37,North,0,0.0,0.0,60,0.00,,,0.01,WUHU216HW,2013-07-26 17:38:00,
2013-07-26 10:43:00,74.5,58.2,30.37,North,0,0.0,0.0,57,0.00,,,0.01,WUHU216HW,2013-07-26 17:43:00,
2013-07-26 10:48:00,74.7,59.0,30.37,North,0,0.0,0.0,58,0.00,,,0.01,WUHU216HW,2013-07-26 17:48:00,
2013-07-26 10:53:00,75.1,59.3,30.37,North,0,0.0,0.0,58,0.00,,,0.01,WUHU216HW,2013-07-26 17:53:00,
2013-07-26 10:58:00,75.2,59.0,30.37,North,0,0.0,0.0,57,0.00,,,0.01,WUHU216HW,2013-07-26 17:58:00,
2013-07-26 11:03:00,75.6,59.8,30.37,North,0,0.0,0.0,58,0.00,,,0.01,WUHU216HW,2013-07-26 18:03:00,
2013-07-26 11:08:00,75.8,58.4,30.37,North,0,0.0,0.0,55,0.00,,,0.01,WUHU216HW,2013-07-26 18:08:00,
2013-07-26 11:13:00,75.8,58.0,30.37,North,0,0.0,0.0,54,0.00,,,0.01,WUHU216HW,2013-07-26 18:13:00,
2013-07-26 11:18:00,76.0,58.6,30.37,North,0,0.0,0.0,55,0.00,,,0.01,WUHU216HW,2013-07-26 18:18:00,
2013-07-26 11:23:00,76.1,59.8,30.37,North,0,0.0,0.0,57,0.00,,,0.01,WUHU216HW,2013-07-26 18:23:00,
2013-07-26 11:28:00,76.5,60.1,30.37,North,0,0.0,0.0,57,0.00,,,0.01,WUHU216HW,2013-07-26 18:28:00,
2013-07-26 11:33:00,76.7,59.8,30.37,North,0,0.0,0.0,56,0.00,,,0.01,WUHU216HW,2013-07-26 18:33:00,
2013-07-26 11:38:00,77.0,60.1,30.36,North,0,0.0,0.0,56,0.00,,,0.01,WUHU216HW,2013-07-26 18:38:00,
2013-07-26 11:43:00,77.4,59.4,30.37,North,0,0.0,0.0,54,0.00,,,0.01,WUHU216HW,2013-07-26 18:43:00,
2013-07-26 11:48:00,77.8,59.8,30.36,North,0,0.0,0.0,54,0.00,,,0.01,WUHU216HW,2013-07-26 18:48:00,
2013-07-26 11:53:00,78.3,60.3,30.36,North,0,0.0,0.0,54,0.00,,,0.01,WUHU216HW,2013-07-26 18:53:00,
2013-07-26 11:58:00,78.8,60.8,30.36,North,0,0.0,0.0,54,0.00,,,0.01,WUHU216HW,2013-07-26 18:58:00,
2013-07-26 12:03:00,79.2,60.0,30.36,North,0,0.0,0.0,52,0.00,,,0.01,WUHU216HW,2013-07-26 19:03:00,
2013-07-26 12:08:00,79.7,59.5,30.35,North,0,0.0,0.0,50,0.00,,,0.01,WUHU216HW,2013-07-26 19:08:00,
2013-07-26 12:13:00,79.7,59.5,30.36,North,0,0.0,0.0,50,0.00,,,0.01,WUHU216HW,2013-07-26 19:13:00,
2013-07-26 12:18:00,79.9,60.2,30.36,North,0,0.0,0.0,51,0.00,,,0.01,WUHU216HW,2013-07-26 19:18:00,
2013-07-26 12:23:00,80.3,59.9,30.35,North,0,0.0,0.0,50,0.00,,,0.01,WUHU216HW,2013-07-26 19:23:00,
2013-07-26 12:28:00,80.8,59.9,30.35,North,0,0.0,0.0,49,0.00,,,0.01,WUHU216HW,2013-07-26 19:28:00,
2013-07-26 12:33:00,81.4,60.3,30.35,North,0,0.0,0.0,49,0.00,,,0.01,WUHU216HW,2013-07-26 19:33:00,
2013-07-26 12:38:00,81.5,59.9,30.34,North,0,0.0,0.0,48,0.00,,,0.01,WUHU216HW,2013-07-26 19:38:00,
2013-07-26 12:43:00,82.1,60.4,30.35,North,0,0.0,0.0,48,0.00,,,0.01,WUHU216HW,2013-07-26 19:43:00,
2013-07-26 12:48:00,82.1,60.4,30.35,North,0,0.0,0.0,48,0.00,,,0.01,WUHU216HW,2013-07-26 19:48:00,
2013-07-26 12:53:00,82.1,59.1,30.35,North,0,0.0,0.0,46,0.00,,,0.01,WUHU216HW,2013-07-26 19:53:00,
2013-07-26 12:58:00,81.7,58.9,30.35,North,0,0.0,0.0,46,0.00,,,0.01,WUHU216HW,2013-07-26 19:58:00,
2013-07-26 13:03:00,81.7,59.4,30.34,North,0,0.0,0.0,47,0.00,,,0.01,WUHU216HW,2013-07-26 20:03:00,
2013-07-26 13:08:00,81.5,58.7,30.34,North,0,0.0,0.0,46,0.00,,,0.01,WUHU216HW,2013-07-26 20:08:00,
2013-07-26 13:13:00,81.2,59.0,30.34,North,0,0.0,0.0,47,0.00,,,0.01,WUHU216HW,2013-07-26 20:13:00,
2013-07-26 13:18:00,81.0,59.4,30.34,North,0,0.0,0.0,48,0.00,,,0.01,WUHU216HW,2013-07-26 20:18:00,
2013-07-26 13:23:00,80.8,59.2,30.34,North,0,0.0,0.0,48,0.00,,,0.01,WUHU216HW,2013-07-26 20:23:00,
2013-07-26 13:28:00,80.6,59.0,30.34,North,0,0.0,0.0,48,0.00,,,0.01,WUHU216HW,2013-07-26 20:28:00,
2013-07-26 13:33:00,80.5,59.5,30.34,North,0,0.0,0.0,49,0.00,,,0.01,WUHU216HW,2013-07-26 20:33:00,
2013-07-26 13:38:00,80.3,59.4,30.34,North,0,0.0,0.0,49,0.00,,,0.01,WUHU216HW,2013-07-26 20:38:00,
2013-07-26 13:43:00,80.1,59.2,30.34,North,0,0.0,0.0,49,0.00,,,0.01,WUHU216HW,2013-07-26 20:43:00,
2013-07-26 13:48:00,79.9,59.0,30.34,North,0,0.0,0.0,49,0.00,,,0.01,WUHU216HW,2013-07-26 20:48:00,
2013-07-26 13:53:00,79.9,59.7,30.34,North,0,0.0,0.0,50,0.00,,,0.01,WUHU216HW,2013-07-26 20:53:00,
2013-07-26 13:58:00,79.9,60.2,30.34,North,0,0.0,0.0,51,0.00,,,0.01,WUHU216HW,2013-07-26 20:58:00,
2013-07-26 14:03:00,79.9,60.7,30.34,North,0,0.0,0.0,52,0.00,,,0.01,WUHU216HW,2013-07-26 21:03:00,
2013-07-26 14:08:00,79.6,60.4,30.34,North,0,0.0,0.0,52,0.00,,,0.01,WUHU216HW,2013-07-26 21:08:00,
2013-07-26 14:13:00,79.2,60.0,30.34,North,0,0.0,0.0,52,0.00,,,0.01,WUHU216HW,2013-07-26 21:13:00,
2013-07-26 14:18:00,79.2,59.5,30.33,North,0,0.0,0.0,51,0.00,,,0.01,WUHU216HW,2013-07-26 21:18:00,
2013-07-26 14:23:00,79.2,60.0,30.33,North,0,0.0,0.0,52,0.00,,,0.01,WUHU216HW,2013-07-26 21:23:00,
2013-07-26 14:28:00,79.2,61.1,30.33,North,0,0.0,0.0,54,0.00,,,0.01,WUHU216HW,2013-07-26 21:28:00,
2013-07-26 14:33:00,79.2,61.1,30.33,North,0,0.0,0.0,54,0.00,,,0.01,WUHU216HW,2013-07-26 21:33:00,
2013-07-26 14:38:00,79.2,60.6,30.32,North,0,0.0,0.0,53,0.00,,,0.01,WUHU216HW,2013-07-26 21:38:00,
2013-07-26 14:43:00,79.4,60.8,30.33,North,0,0.0,0.0,53,0.00,,,0.01,WUHU216HW,2013-07-26 21:43:00,
2013-07-26 14:48:00,79.7,60.6,30.32,North,0,0.0,0.0,52,0.00,,,0.01,WUHU216HW,2013-07-26 21:48:00,
2013-07-26 14:53:00,79.9,59.7,30.32,North,0,0.0,0.0,50,0.00,,,0.01,WUHU216HW,2013-07-26 21:53:00,
2013-07-26 14:58:00,80.3,60.5,30.32,North,0,0.0,0.0,51,0.00,,,0.01,WUHU216HW,2013-07-26 21:58:00,
2013-07-26 15:03:00,79.9,60.2,30.32,North,0,0.0,0.0,51,0.00,,,0.01,WUHU216HW,2013-07-26 22:03:00,
2013-07-26 15:08:00,79.7,58.9,30.32,North,0,0.0,0.0,49,0.00,,,0.01,WUHU216HW,2013-07-26 22:08:00,
2013-07-26 15:13:00,79.6,58.7,30.32,North,0,0.0,0.0,49,0.00,,,0.01,WUHU216HW,2013-07-26 22:13:00,
2013-07-26 15:18:00,79.2,59.1,30.31,North,0,0.0,0.0,50,0.00,,,0.01,WUHU216HW,2013-07-26 22:18:00,
2013-07-26 15:23:00,78.8,58.7,30.31,North,0,0.0,0.0,50,0.00,,,0.01,WUHU216HW,2013-07-26 22:23:00,
2013-07-26 15:28:00,78.7,59.1,30.31,North,0,0.0,0.0,51,0.00,,,0.01,WUHU216HW,2013-07-26 22:28:00,
2013-07-26 15:33:00,78.5,57.8,30.31,North,0,0.0,0.0,49,0.00,,,0.01,WUHU216HW,2013-07-26 22:33:00,
2013-07-26 15:38:00,78.5,58.3,30.31,North,0,0.0,0.0,50,0.00,,,0.01,WUHU216HW,2013-07-26 22:38:00,
2013-07-26 15:43:00,78.5,57.8,30.31,North,0,0.0,0.0,49,0.00,,,0.01,WUHU216HW,2013-07-26 22:43:00,
2013-07-26 15:48:00,79.0,58.2,30.31,North,0,0.0,0.0,49,0.00,,,0.01,WUHU216HW,2013-07-26 22:48:00,
2013-07-26 15:53:00,79.6,58.2,30.31,North,0,0.0,0.0,48,0.00,,,0.01,WUHU216HW,2013-07-26 22:53:00,
2013-07-26 15:58:00,80.1,58.0,30.31,North,0,0.0,0.0,47,0.00,,,0.01,WUHU216HW,2013-07-26 22:58:00,
2013-07-26 16:03:00,80.3,57.5,30.31,North,0,0.0,0.0,46,0.00,,,0.01,WUHU216HW,2013-07-26 23:03:00,
2013-07-26 16:08:00,80.3,57.5,30.31,North,0,0.0,0.0,46,0.00,,,0.01,WUHU216HW,2013-07-26 23:08:00,
2013-07-26 16:13:00,80.8,58.1,30.31,North,0,0.0,0.0,46,0.00,,,0.01,WUHU216HW,2013-07-26 23:13:00,
2013-07-26 16:18:00,81.0,58.8,30.31,North,0,0.0,0.0,47,0.00,,,0.01,WUHU216HW,2013-07-26 23:18:00,
2013-07-26 16:23:00,81.0,59.4,30.32,North,0,0.0,0.0,48,0.00,,,0.01,WUHU216HW,2013-07-26 23:23:00,
2013-07-26 16:28:00,81.0,59.4,30.32,North,0,0.0,0.0,48,0.00,,,0.01,WUHU216HW,2013-07-26 23:28:00,
2013-07-26 16:33:00,81.0,60.0,30.31,North,0,0.0,0.0,49,0.00,,,0.01,WUHU216HW,2013-07-26 23:33:00,
2013-07-26 16:38:00,80.5,59.5,30.32,North,0,0.0,0.0,49,0.00,,,0.01,WUHU216HW,2013-07-26 23:38:00,
2013-07-26 16:43:00,79.9,59.7,30.32,North,0,0.0,0.0,50,0.00,,,0.01,WUHU216HW,2013-07-26 23:43:00,
2013-07-26 16:48:00,79.6,59.9,30.33,North,0,0.0,0.0,51,0.00,,,0.01,WUHU216HW,2013-07-26 23:48:00,
2013-07-26 16:53:00,79.6,61.4,30.32,North,0,0.0,0.0,54,0.00,,,0.01,WUHU216HW,2013-07-26 23:53:00,
2013-07-26 16:58:00,79.2,61.1,30.32,North,0,0.0,0.0,54,0.00,,,0.01,WUHU216HW,2013-07-26 23:58:00,
2013-07-26 17:03:00,78.8,60.8,30.32,North,0,0.0,0.0,54,0.00,,,0.01,WUHU216HW,2013-07-27 00:03:00,
2013-07-26 17:08:00,78.7,61.1,30.32,North,0,0.0,0.0,55,0.00,,,0.01,WUHU216HW,2013-07-27 00:08:00,
2013-07-26 17:13:00,78.3,61.3,30.32,North,0,0.0,0.0,56,0.00,,,0.01,WUHU216HW,2013-07-27 00:13:00,
2013-07-26 17:18:00,78.1,61.7,30.32,North,0,0.0,0.0,57,0.00,,,0.01,WUHU216HW,2013-07-27 00:18:00,
2013-07-26 17:23:00,78.1,61.7,30.31,North,0,0.0,0.0,57,0.00,,,0.01,WUHU216HW,2013-07-27 00:23:00,
2013-07-26 17:28:00,78.1,62.2,30.31,North,0,0.0,0.0,58,0.00,,,0.01,WUHU216HW,2013-07-27 00:28:00,
2013-07-26 17:33:00,78.1,62.2,30.32,North,0,0.0,0.0,58,0.00,,,0.01,WUHU216HW,2013-07-27 00:33:00,
2013-07-26 17:38:00,78.1,62.2,30.32,North,0,0.0,0.0,58,0.00,,,0.01,WUHU216HW,2013-07-27 00:38:00,
2013-07-26 17:43:00,78.3,61.8,30.33,North,0,0.0,0.0,57,0.00,,,0.01,WUHU216HW,2013-07-27 00:43:00,
2013-07-26 17:48:00,77.8,55.9,30.36,North,0,0.0,0.0,47,0.00,,,0.01,WUHU216HW,2013-07-27 00:48:00,
2013-07-26 17:53:00,75.2,55.4,30.37,North,0,0.0,0.0,50,0.00,,,0.01,WUHU216HW,2013-07-27 00:53:00,
2013-07-26 17:58:00,73.1,54.4,30.37,North,0,0.0,0.0,52,0.00,,,0.01,WUHU216HW,2013-07-27 00:58:00,
2013-07-26 18:03:00,71.5,54.9,30.39,North,0,0.0,0.0,56,0.00,,,0.01,WUHU216HW,2013-07-27 01:03:00,
2013-07-26 18:08:00,70.2,54.3,30.39,North,0,0.0,0.0,57,0.00,,,0.01,WUHU216HW,2013-07-27 01:08:00,
2013-07-26 18:13:00,69.3,56.6,30.39,North,0,0.0,0.0,64,0.01,,,0.02,WUHU216HW,2013-07-27 01:13:00,
2013-07-26 18:18:00,67.7,57.2,30.39,North,0,0.0,0.0,69,0.07,,,0.08,WUHU216HW,2013-07-27 01:18:00,
2013-07-26 18:23:00,65.9,57.0,30.39,North,0,0.0,0.0,73,0.13,,,0.14,WUHU216HW,2013-07-27 01:23:00,
2013-07-26 18:28:00,64.3,56.5,30.40,North,0,0.0,0.0,76,0.21,,,0.22,WUHU216HW,2013-07-27 01:28:00,
2013-07-26 18:33:00,63.4,56.7,30.40,North,0,0.0,0.0,79,0.24,,,0.25,WUHU216HW,2013-07-27 01:33:00,
2013-07-26 18:38:00,62.8,57.3,30.41,North,0,0.0,0.0,82,0.25,,,0.26,WUHU216HW,2013-07-27 01:38:00,
2013-07-26 18:43:00,62.3,56.7,30.41,North,0,0.0,0.0,82,0.30,,,0.31,WUHU216HW,2013-07-27 01:43:00,
2013-07-26 18:48:00,62.1,56.5,30.41,North,0,0.0,0.0,82,0.30,,,0.31,WUHU216HW,2013-07-27 01:48:00,
2013-07-26 18:53:00,62.1,56.9,30.42,North,0,0.0,0.0,83,0.32,,,0.33,WUHU216HW,2013-07-27 01:53:00,
2013-07-26 18:58:00,61.7,56.9,30.42,North,0,0.0,0.0,84,0.32,,,0.33,WUHU216HW,2013-07-27 01:58:00,
2013-07-26 19:03:00,61.4,56.9,30.41,North,0,0.0,0.0,85,0.34,,,0.35,WUHU216HW,2013-07-27 02:03:00,
2013-07-26 19:08:00,60.8,56.3,30.41,North,0,0.0,0.0,85,0.34,,,0.35,WUHU216HW,2013-07-27 02:08:00,
2013-07-26 19:13:00,60.5,56.6,30.41,North,0,0.0,0.0,87,0.33,,,0.35,WUHU216HW,2013-07-27 02:13:00,
2013-07-26 19:18:00,60.1,56.3,30.41,North,0,0.0,0.0,87,0.26,,,0.35,WUHU216HW,2013-07-27 02:18:00,
2013-07-26 19:23:00,59.9,56.1,30.41,North,0,0.0,0.0,87,0.21,,,0.35,WUHU216HW,2013-07-27 02:23:00,
2013-07-26 19:28:00,59.8,55.9,30.41,North,0,0.0,0.0,87,0.13,,,0.35,WUHU216HW,2013-07-27 02:28:00,
2013-07-26 19:33:00,59.8,55.9,30.41,North,0,0.0,0.0,87,0.10,,,0.35,WUHU216HW,2013-07-27 02:33:00,
2013-07-26 19:38:00,59.6,56.1,30.41,North,0,0.0,0.0,88,0.08,,,0.35,WUHU216HW,2013-07-27 02:38:00,
2013-07-26 19:43:00,59.6,56.1,30.41,North,0,0.0,0.0,88,0.04,,,0.35,WUHU216HW,2013-07-27 02:43:00,
2013-07-26 19:48:00,59.4,55.9,30.40,North,0,0.0,0.0,88,0.04,,,0.35,WUHU216HW,2013-07-27 02:48:00,
2013-07-26 19:53:00,59.4,55.9,30.40,North,0,0.0,0.0,88,0.02,,,0.35,WUHU216HW,2013-07-27 02:53:00,
2013-07-26 19:58:00,59.4,56.2,30.40,North,0,0.0,0.0,89,0.02,,,0.35,WUHU216HW,2013-07-27 02:58:00,
2013-07-26 20:03:00,59.2,55.7,30.40,North,0,0.0,0.0,88,0.00,,,0.35,WUHU216HW,2013-07-27 03:03:00,
2013-07-26 20:08:00,59.2,56.0,30.40,North,0,0.0,0.0,89,0.01,,,0.36,WUHU216HW,2013-07-27 03:08:00,
2013-07-26 20:13:00,59.4,56.2,30.40,North,0,0.0,0.0,89,0.01,,,0.36,WUHU216HW,2013-07-27 03:13:00,
2013-07-26 20:18:00,59.6,56.3,30.40,North,0,0.0,0.0,89,0.01,,,0.36,WUHU216HW,2013-07-27 03:18:00,
2013-07-26 20:23:00,59.6,56.1,30.40,North,0,0.0,0.0,88,0.01,,,0.36,WUHU216HW,2013-07-27 03:23:00,
2013-07-26 20:28:00,59.4,56.2,30.40,North,0,0.0,0.0,89,0.01,,,0.36,WUHU216HW,2013-07-27 03:28:00,
2013-07-26 20:33:00,59.4,56.2,30.40,North,0,0.0,0.0,89,0.01,,,0.36,WUHU216HW,2013-07-27 03:33:00,
2013-07-26 20:38:00,59.4,56.2,30.39,North,0,0.0,0.0,89,0.01,,,0.36,WUHU216HW,2013-07-27 03:38:00,
2013-07-26 20:43:00,59.4,56.2,30.39,North,0,0.0,0.0,89,0.01,,,0.36,WUHU216HW,2013-07-27 03:43:00,
2013-07-26 20:48:00,59.2,56.0,30.39,North,0,0.0,0.0,89,0.01,,,0.36,WUHU216HW,2013-07-27 03:48:00,
2013-07-26 20:53:00,59.2,56.0,30.39,North,0,0.0,0.0,89,0.01,,,0.36,WUHU216HW,2013-07-27 03:53:00,
2013-07-26 20:58:00,59.2,56.0,30.38,North,0,0.0,0.0,89,0.01,,,0.36,WUHU216HW,2013-07-27 03:58:00,
2013-07-26 21:01:00,59.4,56.2,30.38,North,0,0.0,0.0,89,0.01,,,0.36,WUHU216HW,2013-07-27 04:01:00,
2013-07-26 21:06:00,59.2,56.0,30.38,North,0,0.0,0.0,89,0.01,,,0.36,WUHU216HW,2013-07-27 04:06:00,
2013-07-26 21:11:00,59.4,56.5,30.37,North,0,0.0,0.0,90,0.00,,,0.36,WUHU216HW,2013-07-27 04:11:00,
2013-07-26 21:16:00,59.4,56.5,30.38,North,0,0.0,0.0,90,0.00,,,0.36,WUHU216HW,2013-07-27 04:16:00,
2013-07-26 21:22:00,59.4,56.5,30.38,North,0,0.0,0.0,90,0.00,,,0.36,WUHU216HW,2013-07-27 04:22:00,
2013-07-26 21:27:00,59.4,56.5,30.37,North,0,0.0,0.0,90,0.00,,,0.36,WUHU216HW,2013-07-27 04:27:00,
2013-07-26 21:32:00,59.4,56.5,30.37,North,0,0.0,0.0,90,0.00,,,0.36,WUHU216HW,2013-07-27 04:32:00,
2013-07-26 21:37:00,59.4,56.5,30.37,North,0,0.0,0.0,90,0.00,,,0.36,WUHU216HW,2013-07-27 04:37:00,
2013-07-26 21:42:00,59.4,56.5,30.37,North,0,0.0,0.0,90,0.00,,,0.36,WUHU216HW,2013-07-27 04:42:00,
2013-07-26 21:47:00,59.2,56.0,30.36,North,0,0.0,0.0,89,0.00,,,0.36,WUHU216HW,2013-07-27 04:47:00,
2013-07-26 21:52:00,59.0,56.2,30.36,North,0,0.0,0.0,90,0.00,,,0.36,WUHU216HW,2013-07-27 04:52:00,
2013-07-26 21:57:00,58.9,56.0,30.36,North,0,0.0,0.0,90,0.00,,,0.36,WUHU216HW,2013-07-27 04:57:00,
2013-07-26 22:02:00,58.7,55.8,30.35,North,0,0.0,0.0,90,0.00,,,0.36,WUHU216HW,2013-07-27 05:02:00,
2013-07-26 22:07:00,58.7,55.8,30.34,North,0,0.0,0.0,90,0.00,,,0.36,WUHU216HW,2013-07-27 05:07:00,
2013-07-26 22:12:00,58.7,55.8,30.34,North,0,0.0,0.0,90,0.00,,,0.36,WUHU216HW,2013-07-27 05:12:00,
2013-07-26 22:17:00,58.7,55.8,30.34,North,0,0.0,0.0,90,0.00,,,0.36,WUHU216HW,2013-07-27 05:17:00,
2013-07-26 22:22:00,58.5,55.6,30.34,North,0,0.0,0.0,90,0.00,,,0.36,WUHU216HW,2013-07-27 05:22:00,
2013-07-26 22:27:00,58.5,55.6,30.34,North,0,0.0,0.0,90,0.00,,,0.36,WUHU216HW,2013-07-27 05:27:00,
2013-07-26 22:32:00,58.3,55.4,30.34,North,0,0.0,0.0,90,0.00,,,0.36,WUHU216HW,2013-07-27 05:32:00,
2013-07-26 22:37:00,58.5,55.6,30.34,North,0,0.0,0.0,90,0.00,,,0.36,WUHU216HW,2013-07-27 05:37:00,
2013-07-26 22:42:00,58.5,55.6,30.34,North,0,0.0,0.0,90,0.00,,,0.36,WUHU216HW,2013-07-27 05:42:00,
2013-07-26 22:47:00,58.7,55.8,30.34,North,0,0.0,0.0,90,0.00,,,0.36,WUHU216HW,2013-07-27 05:47:00,
2013-07-26 22:52:00,58.7,55.8,30.34,North,0,0.0,0.0,90,0.00,,,0.36,WUHU216HW,2013-07-27 05:52:00,
2013-07-26 22:57:00,58.5,55.6,30.34,North,0,0.0,0.0,90,0.00,,,0.36,WUHU216HW,2013-07-27 05:57:00,
2013-07-26 23:02:00,58.5,55.6,30.33,North,0,0.0,0.0,90,0.00,,,0.36,WUHU216HW,2013-07-27 06:02:00,
2013-07-26 23:07:00,58.5,55.6,30.34,North,0,0.0,0.0,90,0.00,,,0.36,WUHU216HW,2013-07-27 06:07:00,
2013-07-26 23:12:00,58.5,55.6,30.34,North,0,0.0,0.0,90,0.00,,,0.36,WUHU216HW,2013-07-27 06:12:00,
2013-07-26 23:17:00,58.3,55.4,30.35,North,0,0.0,0.0,90,0.00,,,0.36,WUHU216HW,2013-07-27 06:17:00,
2013-07-26 23:22:00,58.3,55.4,30.35,North,0,0.0,0.0,90,0.00,,,0.36,WUHU216HW,2013-07-27 06:22:00,
2013-07-26 23:27:00,58.3,55.4,30.35,North,0,0.0,0.0,90,0.00,,,0.36,WUHU216HW,2013-07-27 06:27:00,
2013-07-26 23:32:00,58.5,55.6,30.35,North,0,0.0,0.0,90,0.00,,,0.36,WUHU216HW,2013-07-27 06:32:00,
2013-07-26 23:37:00,58.5,55.6,30.35,North,0,0.0,0.0,90,0.00,,,0.36,WUHU216HW,2013-07-27 06:37:00,
2013-07-26 23:42:00,58.5,55.6,30.35,North,0,0.0,0.0,90,0.00,,,0.36,WUHU216HW,2013-07-27 06:42:00,
2013-07-26 23:47:00,58.5,55.6,30.35,North,0,0.0,0.0,90,0.00,,,0.36,WUHU216HW,2013-07-27 06:47:00,
2013-07-26 23:52:00,58.5,55.6,30.35,North,0,0.0,0.0,90,0.00,,,0.36,WUHU216HW,2013-07-27 06:52:00,
2013-07-26 23:57:00,58.7,55.8,30.35,North,0,0.0,0.0,90,0.00,,,0.36,WUHU216HW,2013-07-27 06:57:00,